Sonoma County Dew H  o  u  r  l  y Since Midnight Yesterday
Latest Hourly Observations Air 24hr Pt 24hr Max Total Min Max Temps Daily
Temp Chg Temp Chg RH Wind Wind Gust Precip Precip Temp Temp Min/Max Precip
Station ID Station Name Date Time F F F F % Dir mph mph In Today F F F In
  North  
COO Rockpile-Cooley 1825' 9/22 16:00 87.2 -3 41 +2 19 WSW 3 13 0.00 0.00 57.1 89.1 64/92 0.00
CLR   Rockpile Lower 1270' 9/22 15:45 89.9 -4 37 +3 16 WNW 4 9 0.00 0.00 50.0 92.7 60/96 0.00
RAX Cloverdale East 9/22 16:00 90.4 -5 49 +9 24 S 5 11 0.00 0.00 45.8 91.1 49/96 0.00
R38 Cloverdale SE 625' 9/22 16:00 88.3 -3 48 +8 25 S 9 16 0.00 0.00 47.0 89.8 54/93 0.00
GYW Geyserville West (Gallo) 9/22 15:00 86.0 -5 52 +14 31 -- 5 11 0.00 0.00 46.6 87.1 43/93 --
HOF Geyserville (Hoffman) 9/22 16:00 85.4 -5 54 +12 34 SE 5 10 0.00 0.00 45.5 86.1 41/91 0.00
GEY Geyserville 9/22 16:00 86.3 -5 52 +14 31 SE 6 9 0.00 0.00 48.0 86.9 45/92 0.00
R40 Geyserville NE 725' 9/22 16:00 84.4 -5 52 +12 32 SSW 10 13 0.00 0.00 48.5 86.2 52/93 0.00
F40 Geyserville South (Nervo) 9/22 16:00 84.1 -6 51 +12 32 SSE 5 11 0.00 0.00 50.9 85.1 52/92 0.00
PIC Alexander Valley (Piccolo) 9/22 16:00 86.9 -5 46 +9 24 S 3 9 0.00 0.00 46.8 87.8 42/93 0.00
RVO Lytton (River Oaks) 9/22 16:00 85.7 -4 52 +10 32 SSW 5 9 0.00 0.00 45.0 86.5 40/92 0.00
DRY Dry Creek Valley 9/22 16:00 83.3 -7 54 +16 36 SE 9 13 0.00 0.00 50.1 83.7 43/92 0.00
Central    
F39 Healdsburg South (Sodini) 9/22 16:00 85.5 -2 51 +5 30 SSE 5 9 0.00 0.00 48.8 86.0 43/94 0.00
R08 Windsor NW 9/22 16:00 83.9 -2 53 +7 35 SE 4 11 0.00 0.00 51.9 85.7 49/91 0.00
FOT Windsor East 9/22 16:00 81.2 -5 48 +4 32 S 6 10 0.00 0.00 51.9 82.0 43/91 0.00
AIR Windsor SE (Airport) 9/22 16:00 80.0 -4 48 +1 33 S 4 9 0.00 0.00 51.7 82.7 44/90 0.00
WSR Windsor South (Laughlin Rd) 9/22 11:00 62.4 -15 51 +11 66 -- -- -- 0.00 0.00 49.7 62.6 45/90 0.00
GAR Lower Westside Rd 9/22 16:00 81.7 0 51 +4 35 SE 4 8 0.00 0.00 45.8 82.4 42/90 0.00
SHO Forestville (Shone) 235' 9/22 16:00 78.8 -1 53 +3 40 ESE 4 8 0.00 0.00 48.3 80.8 46/89 0.00
R30 Forestville (Wohler Rd) 9/22 16:00 81.2 +1 53 +2 38 ESE 5 11 0.00 0.00 45.9 82.0 43/89 0.00
RTV Forestville (RTV) 65' 9/22 16:00 84.5 +1 56 +0 38 SSE 3 6 0.00 0.00 46.5 85.6 42/93 0.00
CRI Fulton SW 9/22 16:00 79.4 +0 50 -1 36 S 5 11 0.00 0.00 50.6 80.4 43/89 0.00
DEN Lower Mark West Cr (Denner) 9/22 16:00 73.7 -6 53 +1 48 S 10 14 0.00 0.00 47.7 77.0 42/87 0.00
BTO Sebastopol (Balletto) 9/22 16:00 75.2 +3 50 -2 41 SSW 5 10 0.00 0.00 50.6 78.8 42/88 0.00
GRW Graton West (Dutton Ranch) 9/22 16:00 76.7 +4 50 -1 39 S 4 10 0.00 0.00 44.2 79.2 40/88 0.00
DUT   Graton South (Mill Station) 9/22 16:00 66.8 +2 52 -2 58 S 4 12 0.00 0.00 49.3 71.4 38/83 0.00
HIR   Fort Ross/Seaview (Hirsch) 9/22 16:00 77.2 +5 44 -6 31 NW 4 6 0.00 0.00 56.7 79.8 55/81 0.00
South      
BVY Lower Bennett Valley 9/22 15:45 81.2 -6 48 +1 31 SSE 4 9 0.00 0.00 46.0 82.1 41/90 0.00
KEN   Kenwood (Kunde) 9/22 16:00 85.9 -4 47 +2 26 WSW 3 9 0.00 0.00 49.7 86.3 39/92 0.00
F11   Sonoma Valley (Bedrock) 9/22 16:00 87.6 +5 39 -6 18 N 4 9 0.00 0.00 48.0 88.8 44/87 0.00
MAT Sonoma SW #N/A #N/A #N/A #N/A #N/A #N/A ### #N/A #N/A #N/A #N/A #N/A #N/A #N/A #N/A #N/A
LEV Sonoma (Leveroni) 9/22 16:00 85.8 +5 45 -4 24 SW 7 14 0.00 0.00 43.4 87.2 45/86 0.00
SAS Schellville 9/22 16:00 84.4 +6 48 -3 28 WSW 6 10 0.00 0.00 48.4 87.9 42/86 0.00
F62 Sonoma SE (Napoli) 9/22 16:00 86.6 +7 45 -3 24 WSW 5 10 0.00 0.00 41.8 87.2 42/86 0.00
HUR Carneros Hilltop 9/22 16:00 81.5 +2 54 +2 38 SSW 6 10 -- -- 49.0 82.4 53/81 0.00
HUI Carneros Lower 9/22 16:00 78.5 +2 55 +2 45 S 5 10 0.00 0.00 49.2 79.2 46/80 0.00
FRT   Petaluma East 9/22 15:45 80.8 -6 49 -2 33 NW 7 13 0.00 0.00 52.2 82.5 43/93 0.00
SLE South Lakeville 9/22 16:00 77.9 +2 54 +0 44 SE 4 8 0.00 0.00 51.9 78.8 42/82 0.00
  Sonoma County Data Map